sensor_id;sensor_type;location;lat;lon;timestamp;temperature;humidity
21508;DHT22;10915;54.352;9.074;2024-01-30T00:01:25;8.00;99.90
21508;DHT22;10915;54.352;9.074;2024-01-30T00:03:51;8.10;99.90
21508;DHT22;10915;54.352;9.074;2024-01-30T00:06:20;8.10;99.90
21508;DHT22;10915;54.352;9.074;2024-01-30T00:08:49;8.10;99.90
21508;DHT22;10915;54.352;9.074;2024-01-30T00:11:15;8.10;99.90
21508;DHT22;10915;54.352;9.074;2024-01-30T00:13:41;8.10;99.90
21508;DHT22;10915;54.352;9.074;2024-01-30T00:16:07;8.20;99.90
21508;DHT22;10915;54.352;9.074;2024-01-30T00:18:35;8.20;99.90
21508;DHT22;10915;54.352;9.074;2024-01-30T00:21:01;8.20;99.90
21508;DHT22;10915;54.352;9.074;2024-01-30T00:23:27;8.30;99.90
21508;DHT22;10915;54.352;9.074;2024-01-30T00:25:52;8.30;99.90
21508;DHT22;10915;54.352;9.074;2024-01-30T00:28:18;8.30;99.90
21508;DHT22;10915;54.352;9.074;2024-01-30T00:30:43;8.30;99.90
21508;DHT22;10915;54.352;9.074;2024-01-30T00:33:09;8.30;99.90
21508;DHT22;10915;54.352;9.074;2024-01-30T00:35:35;8.30;99.90
21508;DHT22;10915;54.352;9.074;2024-01-30T00:38:01;8.30;99.90
21508;DHT22;10915;54.352;9.074;2024-01-30T00:40:27;8.30;99.90
21508;DHT22;10915;54.352;9.074;2024-01-30T00:42:52;8.20;99.90
21508;DHT22;10915;54.352;9.074;2024-01-30T00:45:18;8.00;99.90
21508;DHT22;10915;54.352;9.074;2024-01-30T00:47:44;8.00;99.90
21508;DHT22;10915;54.352;9.074;2024-01-30T00:50:10;8.00;99.90
21508;DHT22;10915;54.352;9.074;2024-01-30T00:52:36;8.00;99.90
21508;DHT22;10915;54.352;9.074;2024-01-30T00:55:02;8.00;99.90
21508;DHT22;10915;54.352;9.074;2024-01-30T00:57:28;8.00;99.90
21508;DHT22;10915;54.352;9.074;2024-01-30T00:59:54;8.00;99.90
21508;DHT22;10915;54.352;9.074;2024-01-30T01:02:20;8.00;99.90
21508;DHT22;10915;54.352;9.074;2024-01-30T01:04:45;7.90;99.90
21508;DHT22;10915;54.352;9.074;2024-01-30T01:07:11;7.80;99.90
21508;DHT22;10915;54.352;9.074;2024-01-30T01:09:37;7.80;99.90
21508;DHT22;10915;54.352;9.074;2024-01-30T01:12:03;7.80;99.90
21508;DHT22;10915;54.352;9.074;2024-01-30T01:14:29;7.80;99.90
21508;DHT22;10915;54.352;9.074;2024-01-30T01:16:55;7.70;99.90
21508;DHT22;10915;54.352;9.074;2024-01-30T01:19:21;7.70;99.90
21508;DHT22;10915;54.352;9.074;2024-01-30T01:21:47;7.70;99.90
21508;DHT22;10915;54.352;9.074;2024-01-30T01:24:13;7.70;99.90
21508;DHT22;10915;54.352;9.074;2024-01-30T01:26:38;7.70;99.90
21508;DHT22;10915;54.352;9.074;2024-01-30T01:29:04;7.70;99.90
21508;DHT22;10915;54.352;9.074;2024-01-30T01:31:36;7.60;99.90
21508;DHT22;10915;54.352;9.074;2024-01-30T01:34:05;7.50;99.90
21508;DHT22;10915;54.352;9.074;2024-01-30T01:36:31;7.50;99.90
21508;DHT22;10915;54.352;9.074;2024-01-30T01:38:57;7.30;99.90
21508;DHT22;10915;54.352;9.074;2024-01-30T01:41:22;7.20;99.90
21508;DHT22;10915;54.352;9.074;2024-01-30T01:43:48;7.20;99.90
21508;DHT22;10915;54.352;9.074;2024-01-30T01:46:13;7.20;99.90
21508;DHT22;10915;54.352;9.074;2024-01-30T01:48:39;7.20;99.90
21508;DHT22;10915;54.352;9.074;2024-01-30T01:51:05;7.20;99.90
21508;DHT22;10915;54.352;9.074;2024-01-30T01:53:31;7.10;99.90
21508;DHT22;10915;54.352;9.074;2024-01-30T01:55:57;7.00;99.90
21508;DHT22;10915;54.352;9.074;2024-01-30T01:58:25;7.00;99.90
21508;DHT22;10915;54.352;9.074;2024-01-30T02:00:54;6.90;99.90
21508;DHT22;10915;54.352;9.074;2024-01-30T02:03:20;6.90;99.90
21508;DHT22;10915;54.352;9.074;2024-01-30T02:05:50;6.80;99.90
21508;DHT22;10915;54.352;9.074;2024-01-30T02:08:16;6.80;99.90
21508;DHT22;10915;54.352;9.074;2024-01-30T02:10:41;6.80;99.90
21508;DHT22;10915;54.352;9.074;2024-01-30T02:13:07;6.90;99.90
21508;DHT22;10915;54.352;9.074;2024-01-30T02:15:32;6.80;99.90
21508;DHT22;10915;54.352;9.074;2024-01-30T02:17:58;6.80;99.90
21508;DHT22;10915;54.352;9.074;2024-01-30T02:20:25;6.80;99.90
21508;DHT22;10915;54.352;9.074;2024-01-30T02:22:52;6.80;99.90
21508;DHT22;10915;54.352;9.074;2024-01-30T02:25:18;6.80;99.90
21508;DHT22;10915;54.352;9.074;2024-01-30T02:27:43;6.90;99.90
21508;DHT22;10915;54.352;9.074;2024-01-30T02:30:09;6.90;99.90
21508;DHT22;10915;54.352;9.074;2024-01-30T02:32:35;6.80;99.90
21508;DHT22;10915;54.352;9.074;2024-01-30T02:35:01;6.70;99.90
21508;DHT22;10915;54.352;9.074;2024-01-30T02:37:26;6.70;99.90
21508;DHT22;10915;54.352;9.074;2024-01-30T02:39:52;6.70;99.90
21508;DHT22;10915;54.352;9.074;2024-01-30T02:42:17;6.60;99.90
21508;DHT22;10915;54.352;9.074;2024-01-30T02:44:43;6.60;99.90
21508;DHT22;10915;54.352;9.074;2024-01-30T02:47:09;6.60;99.90
21508;DHT22;10915;54.352;9.074;2024-01-30T02:49:34;6.50;99.90
21508;DHT22;10915;54.352;9.074;2024-01-30T02:52:00;6.50;99.90
21508;DHT22;10915;54.352;9.074;2024-01-30T02:54:25;6.60;99.90
21508;DHT22;10915;54.352;9.074;2024-01-30T02:56:51;6.60;99.90
21508;DHT22;10915;54.352;9.074;2024-01-30T02:59:16;6.50;99.90
21508;DHT22;10915;54.352;9.074;2024-01-30T03:01:45;6.50;99.90
21508;DHT22;10915;54.352;9.074;2024-01-30T03:04:12;6.50;99.90
21508;DHT22;10915;54.352;9.074;2024-01-30T03:06:38;6.40;99.90
21508;DHT22;10915;54.352;9.074;2024-01-30T03:09:03;6.40;99.90
21508;DHT22;10915;54.352;9.074;2024-01-30T03:11:30;6.40;99.90
21508;DHT22;10915;54.352;9.074;2024-01-30T03:13:56;6.20;99.90
21508;DHT22;10915;54.352;9.074;2024-01-30T03:16:22;6.20;99.90
21508;DHT22;10915;54.352;9.074;2024-01-30T03:18:47;6.20;99.90
21508;DHT22;10915;54.352;9.074;2024-01-30T03:21:13;6.20;99.90
21508;DHT22;10915;54.352;9.074;2024-01-30T03:23:39;6.20;99.90
21508;DHT22;10915;54.352;9.074;2024-01-30T03:26:05;6.20;99.90
21508;DHT22;10915;54.352;9.074;2024-01-30T03:28:32;6.20;99.90
21508;DHT22;10915;54.352;9.074;2024-01-30T03:30:57;6.10;99.90
21508;DHT22;10915;54.352;9.074;2024-01-30T03:33:23;6.10;99.90
21508;DHT22;10915;54.352;9.074;2024-01-30T03:35:48;6.10;99.90
21508;DHT22;10915;54.352;9.074;2024-01-30T03:38:14;6.10;99.90
21508;DHT22;10915;54.352;9.074;2024-01-30T03:40:40;6.00;99.90
21508;DHT22;10915;54.352;9.074;2024-01-30T03:43:05;6.00;99.90
21508;DHT22;10915;54.352;9.074;2024-01-30T03:45:31;5.90;99.90
21508;DHT22;10915;54.352;9.074;2024-01-30T03:47:57;5.90;99.90
21508;DHT22;10915;54.352;9.074;2024-01-30T03:50:22;5.80;99.90
21508;DHT22;10915;54.352;9.074;2024-01-30T03:52:48;5.70;99.90
21508;DHT22;10915;54.352;9.074;2024-01-30T03:55:13;5.60;99.90
21508;DHT22;10915;54.352;9.074;2024-01-30T03:57:39;5.60;99.90
21508;DHT22;10915;54.352;9.074;2024-01-30T04:00:05;5.50;99.90
21508;DHT22;10915;54.352;9.074;2024-01-30T04:02:31;5.50;99.90
21508;DHT22;10915;54.352;9.074;2024-01-30T04:04:56;5.50;99.90
21508;DHT22;10915;54.352;9.074;2024-01-30T04:07:22;5.40;99.90
21508;DHT22;10915;54.352;9.074;2024-01-30T04:09:47;5.30;99.90
21508;DHT22;10915;54.352;9.074;2024-01-30T04:12:13;5.20;99.90
21508;DHT22;10915;54.352;9.074;2024-01-30T04:14:39;5.10;99.90
21508;DHT22;10915;54.352;9.074;2024-01-30T04:17:05;5.00;99.90
21508;DHT22;10915;54.352;9.074;2024-01-30T04:19:30;4.90;99.90
21508;DHT22;10915;54.352;9.074;2024-01-30T04:21:56;4.90;99.90
21508;DHT22;10915;54.352;9.074;2024-01-30T04:24:21;4.90;99.90
21508;DHT22;10915;54.352;9.074;2024-01-30T04:26:47;5.00;99.90
21508;DHT22;10915;54.352;9.074;2024-01-30T04:29:12;5.00;99.90
21508;DHT22;10915;54.352;9.074;2024-01-30T04:31:38;5.10;99.90
21508;DHT22;10915;54.352;9.074;2024-01-30T04:34:03;5.20;99.90
21508;DHT22;10915;54.352;9.074;2024-01-30T04:36:29;5.20;99.90
21508;DHT22;10915;54.352;9.074;2024-01-30T04:38:55;5.20;99.90
21508;DHT22;10915;54.352;9.074;2024-01-30T04:41:20;5.20;99.90
21508;DHT22;10915;54.352;9.074;2024-01-30T04:43:46;5.30;99.90
21508;DHT22;10915;54.352;9.074;2024-01-30T04:46:11;5.30;99.90
21508;DHT22;10915;54.352;9.074;2024-01-30T04:48:37;5.30;99.90
21508;DHT22;10915;54.352;9.074;2024-01-30T04:51:02;5.30;99.90
21508;DHT22;10915;54.352;9.074;2024-01-30T04:53:30;5.30;99.90
21508;DHT22;10915;54.352;9.074;2024-01-30T04:55:56;5.30;99.90
21508;DHT22;10915;54.352;9.074;2024-01-30T04:58:22;5.20;99.90
21508;DHT22;10915;54.352;9.074;2024-01-30T05:00:47;5.20;99.90
21508;DHT22;10915;54.352;9.074;2024-01-30T05:03:18;5.20;99.90
21508;DHT22;10915;54.352;9.074;2024-01-30T05:05:43;5.10;99.90
21508;DHT22;10915;54.352;9.074;2024-01-30T05:08:09;5.10;99.90
21508;DHT22;10915;54.352;9.074;2024-01-30T05:10:35;5.00;99.90
21508;DHT22;10915;54.352;9.074;2024-01-30T05:13:00;5.00;99.90
21508;DHT22;10915;54.352;9.074;2024-01-30T05:15:26;4.90;99.90
21508;DHT22;10915;54.352;9.074;2024-01-30T05:17:51;4.90;99.90
21508;DHT22;10915;54.352;9.074;2024-01-30T05:20:17;4.90;99.90
21508;DHT22;10915;54.352;9.074;2024-01-30T05:22:43;4.90;99.90
21508;DHT22;10915;54.352;9.074;2024-01-30T05:25:11;4.90;99.90
21508;DHT22;10915;54.352;9.074;2024-01-30T05:27:37;4.90;99.90
21508;DHT22;10915;54.352;9.074;2024-01-30T05:30:04;4.90;99.90
21508;DHT22;10915;54.352;9.074;2024-01-30T05:32:30;5.00;99.90
21508;DHT22;10915;54.352;9.074;2024-01-30T05:34:55;5.00;99.90
21508;DHT22;10915;54.352;9.074;2024-01-30T05:37:21;5.00;99.90
21508;DHT22;10915;54.352;9.074;2024-01-30T05:39:46;5.00;99.90
21508;DHT22;10915;54.352;9.074;2024-01-30T05:42:12;5.10;99.90
21508;DHT22;10915;54.352;9.074;2024-01-30T05:44:38;5.10;99.90
21508;DHT22;10915;54.352;9.074;2024-01-30T05:47:03;5.10;99.90
21508;DHT22;10915;54.352;9.074;2024-01-30T05:49:29;5.20;99.90
21508;DHT22;10915;54.352;9.074;2024-01-30T05:51:55;5.20;99.90
21508;DHT22;10915;54.352;9.074;2024-01-30T05:54:21;5.30;99.90
21508;DHT22;10915;54.352;9.074;2024-01-30T05:56:46;5.30;99.90
21508;DHT22;10915;54.352;9.074;2024-01-30T05:59:12;5.20;99.90
21508;DHT22;10915;54.352;9.074;2024-01-30T06:01:37;5.30;99.90
21508;DHT22;10915;54.352;9.074;2024-01-30T06:04:03;5.30;99.90
21508;DHT22;10915;54.352;9.074;2024-01-30T06:06:29;5.40;99.90
21508;DHT22;10915;54.352;9.074;2024-01-30T06:08:54;5.30;99.90
21508;DHT22;10915;54.352;9.074;2024-01-30T06:11:21;5.20;99.90
21508;DHT22;10915;54.352;9.074;2024-01-30T06:13:47;5.20;99.90
21508;DHT22;10915;54.352;9.074;2024-01-30T06:16:12;5.30;99.90
21508;DHT22;10915;54.352;9.074;2024-01-30T06:18:38;5.20;99.90
21508;DHT22;10915;54.352;9.074;2024-01-30T06:21:04;5.20;99.90
21508;DHT22;10915;54.352;9.074;2024-01-30T06:23:30;5.20;99.90
21508;DHT22;10915;54.352;9.074;2024-01-30T06:25:55;5.30;99.90
21508;DHT22;10915;54.352;9.074;2024-01-30T06:28:21;5.30;99.90
21508;DHT22;10915;54.352;9.074;2024-01-30T06:30:47;5.30;99.90
21508;DHT22;10915;54.352;9.074;2024-01-30T06:33:13;5.30;99.90
21508;DHT22;10915;54.352;9.074;2024-01-30T06:35:39;5.40;99.90
21508;DHT22;10915;54.352;9.074;2024-01-30T06:38:06;5.40;99.90
21508;DHT22;10915;54.352;9.074;2024-01-30T06:40:31;5.40;99.90
21508;DHT22;10915;54.352;9.074;2024-01-30T06:42:57;5.40;99.90
21508;DHT22;10915;54.352;9.074;2024-01-30T06:45:22;5.40;99.90
21508;DHT22;10915;54.352;9.074;2024-01-30T06:47:48;5.30;99.90
21508;DHT22;10915;54.352;9.074;2024-01-30T06:50:14;5.30;99.90
21508;DHT22;10915;54.352;9.074;2024-01-30T06:52:39;5.30;99.90
21508;DHT22;10915;54.352;9.074;2024-01-30T06:55:05;5.30;99.90
21508;DHT22;10915;54.352;9.074;2024-01-30T06:57:31;5.40;99.90
21508;DHT22;10915;54.352;9.074;2024-01-30T06:59:57;5.40;99.90
21508;DHT22;10915;54.352;9.074;2024-01-30T07:02:22;5.40;99.90
21508;DHT22;10915;54.352;9.074;2024-01-30T07:04:48;5.40;99.90
21508;DHT22;10915;54.352;9.074;2024-01-30T07:07:14;5.50;99.90
21508;DHT22;10915;54.352;9.074;2024-01-30T07:09:41;5.50;99.90
21508;DHT22;10915;54.352;9.074;2024-01-30T07:12:06;5.50;99.90
21508;DHT22;10915;54.352;9.074;2024-01-30T07:14:32;5.60;99.90
21508;DHT22;10915;54.352;9.074;2024-01-30T07:16:58;5.60;99.90
21508;DHT22;10915;54.352;9.074;2024-01-30T07:19:24;5.60;99.90
21508;DHT22;10915;54.352;9.074;2024-01-30T07:21:49;5.70;99.90
21508;DHT22;10915;54.352;9.074;2024-01-30T07:24:15;5.70;99.90
21508;DHT22;10915;54.352;9.074;2024-01-30T07:26:40;5.80;99.90
21508;DHT22;10915;54.352;9.074;2024-01-30T07:29:06;5.90;99.90
21508;DHT22;10915;54.352;9.074;2024-01-30T07:31:32;6.00;99.90
21508;DHT22;10915;54.352;9.074;2024-01-30T07:33:57;5.90;99.90
21508;DHT22;10915;54.352;9.074;2024-01-30T07:36:23;5.90;99.90
21508;DHT22;10915;54.352;9.074;2024-01-30T07:38:49;5.90;99.90
21508;DHT22;10915;54.352;9.074;2024-01-30T07:41:14;6.00;99.90
21508;DHT22;10915;54.352;9.074;2024-01-30T07:43:40;6.00;99.90
21508;DHT22;10915;54.352;9.074;2024-01-30T07:46:05;6.00;99.90
21508;DHT22;10915;54.352;9.074;2024-01-30T07:48:33;5.90;99.90
21508;DHT22;10915;54.352;9.074;2024-01-30T07:50:59;5.90;99.90
21508;DHT22;10915;54.352;9.074;2024-01-30T07:53:25;5.90;99.90
21508;DHT22;10915;54.352;9.074;2024-01-30T07:55:51;5.90;99.90
21508;DHT22;10915;54.352;9.074;2024-01-30T07:58:17;5.90;99.90
21508;DHT22;10915;54.352;9.074;2024-01-30T08:00:43;5.90;99.90
21508;DHT22;10915;54.352;9.074;2024-01-30T08:03:09;6.00;99.90
21508;DHT22;10915;54.352;9.074;2024-01-30T08:05:38;6.00;99.90
21508;DHT22;10915;54.352;9.074;2024-01-30T08:08:04;6.00;99.90
21508;DHT22;10915;54.352;9.074;2024-01-30T08:10:30;6.00;99.90
21508;DHT22;10915;54.352;9.074;2024-01-30T08:12:56;6.00;99.90
21508;DHT22;10915;54.352;9.074;2024-01-30T08:15:21;6.10;99.90
21508;DHT22;10915;54.352;9.074;2024-01-30T08:17:47;6.10;99.90
21508;DHT22;10915;54.352;9.074;2024-01-30T08:20:13;6.10;99.90
21508;DHT22;10915;54.352;9.074;2024-01-30T08:22:39;6.10;99.90
21508;DHT22;10915;54.352;9.074;2024-01-30T08:25:06;6.10;99.90
21508;DHT22;10915;54.352;9.074;2024-01-30T08:27:31;6.10;99.90
21508;DHT22;10915;54.352;9.074;2024-01-30T08:29:57;6.20;99.90
21508;DHT22;10915;54.352;9.074;2024-01-30T08:32:23;6.20;99.90
21508;DHT22;10915;54.352;9.074;2024-01-30T08:34:49;6.30;99.90
21508;DHT22;10915;54.352;9.074;2024-01-30T08:37:15;6.30;99.90
21508;DHT22;10915;54.352;9.074;2024-01-30T08:39:42;6.40;99.90
21508;DHT22;10915;54.352;9.074;2024-01-30T08:42:08;6.50;99.90
21508;DHT22;10915;54.352;9.074;2024-01-30T08:44:34;6.60;99.90
21508;DHT22;10915;54.352;9.074;2024-01-30T08:46:59;6.70;99.90
21508;DHT22;10915;54.352;9.074;2024-01-30T08:49:25;6.70;99.90
21508;DHT22;10915;54.352;9.074;2024-01-30T08:51:50;6.80;99.90
21508;DHT22;10915;54.352;9.074;2024-01-30T08:54:16;6.70;99.90
21508;DHT22;10915;54.352;9.074;2024-01-30T08:56:41;6.50;99.90
21508;DHT22;10915;54.352;9.074;2024-01-30T08:59:07;6.50;99.90
21508;DHT22;10915;54.352;9.074;2024-01-30T09:01:32;6.60;99.90
21508;DHT22;10915;54.352;9.074;2024-01-30T09:03:58;6.60;99.90
21508;DHT22;10915;54.352;9.074;2024-01-30T09:06:24;6.60;99.90
21508;DHT22;10915;54.352;9.074;2024-01-30T09:08:52;6.60;99.90
21508;DHT22;10915;54.352;9.074;2024-01-30T09:11:18;6.70;99.90
21508;DHT22;10915;54.352;9.074;2024-01-30T09:13:43;6.70;99.90
21508;DHT22;10915;54.352;9.074;2024-01-30T09:16:09;6.80;99.90
21508;DHT22;10915;54.352;9.074;2024-01-30T09:18:34;6.90;99.90
21508;DHT22;10915;54.352;9.074;2024-01-30T09:21:00;6.90;99.90
21508;DHT22;10915;54.352;9.074;2024-01-30T09:23:27;6.90;99.90
21508;DHT22;10915;54.352;9.074;2024-01-30T09:25:53;7.00;99.90
21508;DHT22;10915;54.352;9.074;2024-01-30T09:28:19;7.00;99.90
21508;DHT22;10915;54.352;9.074;2024-01-30T09:30:44;7.10;99.90
21508;DHT22;10915;54.352;9.074;2024-01-30T09:33:10;7.20;99.90
21508;DHT22;10915;54.352;9.074;2024-01-30T09:35:38;7.20;99.90
21508;DHT22;10915;54.352;9.074;2024-01-30T09:38:04;7.30;99.90
21508;DHT22;10915;54.352;9.074;2024-01-30T09:40:30;7.30;99.90
21508;DHT22;10915;54.352;9.074;2024-01-30T09:42:57;7.40;99.90
21508;DHT22;10915;54.352;9.074;2024-01-30T09:45:26;7.40;99.90
21508;DHT22;10915;54.352;9.074;2024-01-30T09:47:52;7.50;99.90
21508;DHT22;10915;54.352;9.074;2024-01-30T09:50:18;7.60;99.90
21508;DHT22;10915;54.352;9.074;2024-01-30T09:52:44;7.60;99.90
21508;DHT22;10915;54.352;9.074;2024-01-30T09:55:11;7.60;99.90
21508;DHT22;10915;54.352;9.074;2024-01-30T09:57:37;7.70;99.90
21508;DHT22;10915;54.352;9.074;2024-01-30T10:00:06;7.80;99.90
21508;DHT22;10915;54.352;9.074;2024-01-30T10:02:38;7.90;99.90
21508;DHT22;10915;54.352;9.074;2024-01-30T10:05:04;7.90;99.90
21508;DHT22;10915;54.352;9.074;2024-01-30T10:07:30;7.90;99.90
21508;DHT22;10915;54.352;9.074;2024-01-30T10:09:56;8.00;99.90
21508;DHT22;10915;54.352;9.074;2024-01-30T10:12:22;8.10;99.90
21508;DHT22;10915;54.352;9.074;2024-01-30T10:14:48;8.10;99.90
21508;DHT22;10915;54.352;9.074;2024-01-30T10:17:13;8.20;99.90
21508;DHT22;10915;54.352;9.074;2024-01-30T10:19:40;8.20;99.90
21508;DHT22;10915;54.352;9.074;2024-01-30T10:22:06;8.30;99.90
21508;DHT22;10915;54.352;9.074;2024-01-30T10:24:33;8.40;99.90
21508;DHT22;10915;54.352;9.074;2024-01-30T10:26:59;8.50;99.90
21508;DHT22;10915;54.352;9.074;2024-01-30T10:29:25;8.60;99.90
21508;DHT22;10915;54.352;9.074;2024-01-30T10:32:01;8.60;99.90
21508;DHT22;10915;54.352;9.074;2024-01-30T10:34:28;8.70;99.90
21508;DHT22;10915;54.352;9.074;2024-01-30T10:37:09;8.80;99.90
21508;DHT22;10915;54.352;9.074;2024-01-30T10:39:41;8.90;99.90
21508;DHT22;10915;54.352;9.074;2024-01-30T10:42:12;8.90;99.90
21508;DHT22;10915;54.352;9.074;2024-01-30T10:47:12;9.00;99.90
21508;DHT22;10915;54.352;9.074;2024-01-30T10:49:41;9.00;99.90
21508;DHT22;10915;54.352;9.074;2024-01-30T10:52:09;9.10;99.90
21508;DHT22;10915;54.352;9.074;2024-01-30T10:54:36;9.10;99.90
21508;DHT22;10915;54.352;9.074;2024-01-30T10:57:03;9.20;99.90
21508;DHT22;10915;54.352;9.074;2024-01-30T10:59:30;9.20;99.90
21508;DHT22;10915;54.352;9.074;2024-01-30T11:01:58;9.20;99.90
21508;DHT22;10915;54.352;9.074;2024-01-30T11:04:25;9.20;99.90
21508;DHT22;10915;54.352;9.074;2024-01-30T11:06:51;9.20;99.90
21508;DHT22;10915;54.352;9.074;2024-01-30T11:09:17;9.20;99.90
21508;DHT22;10915;54.352;9.074;2024-01-30T11:11:56;9.10;99.90
21508;DHT22;10915;54.352;9.074;2024-01-30T11:14:30;9.10;99.90
21508;DHT22;10915;54.352;9.074;2024-01-30T11:16:59;9.10;99.90
21508;DHT22;10915;54.352;9.074;2024-01-30T11:19:26;9.10;99.90
21508;DHT22;10915;54.352;9.074;2024-01-30T11:21:55;9.10;99.90
21508;DHT22;10915;54.352;9.074;2024-01-30T11:24:25;9.20;99.90
21508;DHT22;10915;54.352;9.074;2024-01-30T11:27:01;9.10;99.90
21508;DHT22;10915;54.352;9.074;2024-01-30T11:29:28;9.10;99.90
21508;DHT22;10915;54.352;9.074;2024-01-30T11:31:55;9.00;99.90
21508;DHT22;10915;54.352;9.074;2024-01-30T11:34:21;9.10;99.90
21508;DHT22;10915;54.352;9.074;2024-01-30T11:36:56;9.10;99.90
21508;DHT22;10915;54.352;9.074;2024-01-30T11:39:25;9.10;99.90
21508;DHT22;10915;54.352;9.074;2024-01-30T11:41:52;9.20;99.90
21508;DHT22;10915;54.352;9.074;2024-01-30T11:44:22;9.20;99.90
21508;DHT22;10915;54.352;9.074;2024-01-30T11:46:48;9.20;99.90
21508;DHT22;10915;54.352;9.074;2024-01-30T11:49:16;9.30;99.90
21508;DHT22;10915;54.352;9.074;2024-01-30T11:51:43;9.30;99.90
21508;DHT22;10915;54.352;9.074;2024-01-30T11:54:09;9.30;99.90
21508;DHT22;10915;54.352;9.074;2024-01-30T11:56:34;9.40;99.90
21508;DHT22;10915;54.352;9.074;2024-01-30T11:59:01;9.40;99.90
21508;DHT22;10915;54.352;9.074;2024-01-30T12:01:27;9.30;99.90
21508;DHT22;10915;54.352;9.074;2024-01-30T12:03:53;9.40;99.90
21508;DHT22;10915;54.352;9.074;2024-01-30T12:06:19;9.40;99.90
21508;DHT22;10915;54.352;9.074;2024-01-30T12:09:01;9.40;99.90
21508;DHT22;10915;54.352;9.074;2024-01-30T12:11:29;9.50;99.90
21508;DHT22;10915;54.352;9.074;2024-01-30T12:13:55;9.40;99.90
21508;DHT22;10915;54.352;9.074;2024-01-30T12:16:21;9.40;99.90
21508;DHT22;10915;54.352;9.074;2024-01-30T12:18:48;9.40;99.90
21508;DHT22;10915;54.352;9.074;2024-01-30T12:21:16;9.40;99.90
21508;DHT22;10915;54.352;9.074;2024-01-30T12:23:42;9.40;99.90
21508;DHT22;10915;54.352;9.074;2024-01-30T12:26:08;9.40;99.90
21508;DHT22;10915;54.352;9.074;2024-01-30T12:28:34;9.40;99.90
21508;DHT22;10915;54.352;9.074;2024-01-30T12:31:03;9.40;99.90
21508;DHT22;10915;54.352;9.074;2024-01-30T12:33:30;9.50;99.90
21508;DHT22;10915;54.352;9.074;2024-01-30T12:35:56;9.40;99.90
21508;DHT22;10915;54.352;9.074;2024-01-30T12:38:24;9.40;99.90
21508;DHT22;10915;54.352;9.074;2024-01-30T12:40:54;9.50;99.90
21508;DHT22;10915;54.352;9.074;2024-01-30T12:43:21;9.50;99.90
21508;DHT22;10915;54.352;9.074;2024-01-30T12:45:47;9.50;99.90
21508;DHT22;10915;54.352;9.074;2024-01-30T12:48:13;9.50;99.90
21508;DHT22;10915;54.352;9.074;2024-01-30T12:53:12;9.60;99.90
21508;DHT22;10915;54.352;9.074;2024-01-30T12:55:38;9.60;99.90
21508;DHT22;10915;54.352;9.074;2024-01-30T12:58:04;9.60;99.90
21508;DHT22;10915;54.352;9.074;2024-01-30T13:00:29;9.60;99.90
21508;DHT22;10915;54.352;9.074;2024-01-30T13:02:55;9.60;99.90
21508;DHT22;10915;54.352;9.074;2024-01-30T13:05:21;9.60;99.90
21508;DHT22;10915;54.352;9.074;2024-01-30T13:07:46;9.70;99.90
21508;DHT22;10915;54.352;9.074;2024-01-30T13:10:13;9.70;99.90
21508;DHT22;10915;54.352;9.074;2024-01-30T13:12:38;9.70;99.90
21508;DHT22;10915;54.352;9.074;2024-01-30T13:15:05;9.70;99.90
21508;DHT22;10915;54.352;9.074;2024-01-30T13:17:31;9.70;99.90
21508;DHT22;10915;54.352;9.074;2024-01-30T13:19:57;9.70;99.90
21508;DHT22;10915;54.352;9.074;2024-01-30T13:22:23;9.80;99.90
21508;DHT22;10915;54.352;9.074;2024-01-30T13:24:49;9.80;99.90
21508;DHT22;10915;54.352;9.074;2024-01-30T13:27:15;9.80;99.90
21508;DHT22;10915;54.352;9.074;2024-01-30T13:29:41;9.80;99.90
21508;DHT22;10915;54.352;9.074;2024-01-30T13:32:06;9.80;99.90
21508;DHT22;10915;54.352;9.074;2024-01-30T13:34:32;9.80;99.90
21508;DHT22;10915;54.352;9.074;2024-01-30T13:36:58;9.70;99.90
21508;DHT22;10915;54.352;9.074;2024-01-30T13:39:23;9.80;99.90
21508;DHT22;10915;54.352;9.074;2024-01-30T13:41:49;9.80;99.90
21508;DHT22;10915;54.352;9.074;2024-01-30T13:44:15;9.80;99.90
21508;DHT22;10915;54.352;9.074;2024-01-30T13:46:43;9.80;99.90
21508;DHT22;10915;54.352;9.074;2024-01-30T13:49:08;9.70;99.90
21508;DHT22;10915;54.352;9.074;2024-01-30T13:51:34;9.70;99.90
21508;DHT22;10915;54.352;9.074;2024-01-30T13:53:59;9.70;99.90
21508;DHT22;10915;54.352;9.074;2024-01-30T13:56:25;9.70;99.90
21508;DHT22;10915;54.352;9.074;2024-01-30T13:58:52;9.70;99.90
21508;DHT22;10915;54.352;9.074;2024-01-30T14:01:18;9.60;99.90
21508;DHT22;10915;54.352;9.074;2024-01-30T14:03:44;9.60;99.90
21508;DHT22;10915;54.352;9.074;2024-01-30T14:06:10;9.60;99.90
21508;DHT22;10915;54.352;9.074;2024-01-30T14:08:36;9.60;99.90
21508;DHT22;10915;54.352;9.074;2024-01-30T14:11:02;9.60;99.90
21508;DHT22;10915;54.352;9.074;2024-01-30T14:13:27;9.50;99.90
21508;DHT22;10915;54.352;9.074;2024-01-30T14:15:53;9.60;99.90
21508;DHT22;10915;54.352;9.074;2024-01-30T14:18:19;9.60;99.90
21508;DHT22;10915;54.352;9.074;2024-01-30T14:20:45;9.60;99.90
21508;DHT22;10915;54.352;9.074;2024-01-30T14:23:10;9.50;99.90
21508;DHT22;10915;54.352;9.074;2024-01-30T14:25:36;9.50;99.90
21508;DHT22;10915;54.352;9.074;2024-01-30T14:28:01;9.50;99.90
21508;DHT22;10915;54.352;9.074;2024-01-30T14:30:27;9.50;99.90
21508;DHT22;10915;54.352;9.074;2024-01-30T14:32:52;9.50;99.90
21508;DHT22;10915;54.352;9.074;2024-01-30T14:35:18;9.60;99.90
21508;DHT22;10915;54.352;9.074;2024-01-30T14:37:45;9.60;99.90
21508;DHT22;10915;54.352;9.074;2024-01-30T14:40:11;9.50;99.90
21508;DHT22;10915;54.352;9.074;2024-01-30T14:42:36;9.40;99.90
21508;DHT22;10915;54.352;9.074;2024-01-30T14:45:03;9.40;99.90
21508;DHT22;10915;54.352;9.074;2024-01-30T14:47:29;9.30;99.90
21508;DHT22;10915;54.352;9.074;2024-01-30T14:49:56;9.30;99.90
21508;DHT22;10915;54.352;9.074;2024-01-30T14:52:22;9.20;99.90
21508;DHT22;10915;54.352;9.074;2024-01-30T14:54:47;9.20;99.90
21508;DHT22;10915;54.352;9.074;2024-01-30T14:57:13;9.20;99.90
21508;DHT22;10915;54.352;9.074;2024-01-30T14:59:39;9.10;99.90
21508;DHT22;10915;54.352;9.074;2024-01-30T15:02:06;9.10;99.90
21508;DHT22;10915;54.352;9.074;2024-01-30T15:04:31;9.10;99.90
21508;DHT22;10915;54.352;9.074;2024-01-30T15:06:57;9.10;99.90
21508;DHT22;10915;54.352;9.074;2024-01-30T15:09:23;9.00;99.90
21508;DHT22;10915;54.352;9.074;2024-01-30T15:11:49;9.00;99.90
21508;DHT22;10915;54.352;9.074;2024-01-30T15:14:15;9.10;99.90
21508;DHT22;10915;54.352;9.074;2024-01-30T15:16:41;9.00;99.90
21508;DHT22;10915;54.352;9.074;2024-01-30T15:19:08;9.00;99.90
21508;DHT22;10915;54.352;9.074;2024-01-30T15:21:34;8.90;99.90
21508;DHT22;10915;54.352;9.074;2024-01-30T15:23:59;8.90;99.90
21508;DHT22;10915;54.352;9.074;2024-01-30T15:26:25;8.90;99.90
21508;DHT22;10915;54.352;9.074;2024-01-30T15:28:52;8.80;99.90
21508;DHT22;10915;54.352;9.074;2024-01-30T15:31:18;8.70;99.90
21508;DHT22;10915;54.352;9.074;2024-01-30T15:33:44;8.70;99.90
21508;DHT22;10915;54.352;9.074;2024-01-30T15:36:10;8.70;99.90
21508;DHT22;10915;54.352;9.074;2024-01-30T15:38:38;8.70;99.90
21508;DHT22;10915;54.352;9.074;2024-01-30T15:41:04;8.60;99.90
21508;DHT22;10915;54.352;9.074;2024-01-30T15:43:30;8.60;99.90